Time;durP1;ratioP1;P1;durP2;ratioP2;P2;SDS_P1;SDS_P2;PMS_P1;PMS_P2;Temp;Humidity;BMP_temperature;BMP_pressure;BME280_temperature;BME280_humidity;BME280_pressure;Samples;Min_cycle;Max_cycle;Signal;HPM_P1;HPM_P2
2021/08/20 00:00:26;;;;;;;5.75;2.28;;;19.30;99.90;;;;;;5038157;28;20482;-79
2021/08/20 00:02:51;;;;;;;5.00;2.38;;;19.60;99.90;;;;;;5055957;28;20108;-79
2021/08/20 00:05:17;;;;;;;5.18;2.30;;;19.50;99.90;;;;;;5055898;28;20025;-79
2021/08/20 00:07:43;;;;;;;6.75;2.28;;;19.50;99.90;;;;;;5055917;28;20386;-79
2021/08/20 00:10:10;;;;;;;4.28;2.22;;;19.30;99.90;;;;;;5037931;28;20056;-79
2021/08/20 00:12:35;;;;;;;7.00;2.58;;;19.40;99.90;;;;;;5055825;28;20036;-79
2021/08/20 00:15:02;;;;;;;8.07;3.00;;;19.50;99.90;;;;;;5056022;28;20025;-77
2021/08/20 00:17:28;;;;;;;9.00;3.10;;;19.20;99.90;;;;;;5055741;28;20029;-79
2021/08/20 00:19:54;;;;;;;10.50;3.17;;;19.00;99.90;;;;;;5037765;28;20017;-80
2021/08/20 00:22:20;;;;;;;6.07;2.80;;;18.70;99.90;;;;;;5055634;28;20574;-79
2021/08/20 00:24:45;;;;;;;6.95;2.78;;;18.60;99.90;;;;;;5037533;28;20082;-78
2021/08/20 00:27:11;;;;;;;7.55;2.90;;;18.80;99.90;;;;;;5055495;28;20025;-78
2021/08/20 00:29:37;;;;;;;7.78;2.83;;;18.90;99.90;;;;;;5055601;28;20017;-78
2021/08/20 00:32:03;;;;;;;7.05;2.50;;;18.90;99.90;;;;;;5055421;28;20035;-79
2021/08/20 00:34:29;;;;;;;8.15;3.15;;;19.00;99.90;;;;;;5055237;28;20060;-79
2021/08/20 00:36:55;;;;;;;9.52;3.08;;;18.70;99.90;;;;;;5055222;28;20481;-80
2021/08/20 00:39:21;;;;;;;;;;;18.70;99.90;;;;;;5055658;28;20392;-80
2021/08/20 00:41:47;;;;;;;8.50;2.53;;;18.80;99.90;;;;;;5055229;28;19911;-79
2021/08/20 00:44:13;;;;;;;5.85;2.50;;;19.10;99.90;;;;;;5055185;28;20107;-78
2021/08/20 00:46:41;;;;;;;5.40;2.25;;;19.10;99.90;;;;;;5037202;28;20389;-79
2021/08/20 00:49:06;;;;;;;7.22;2.78;;;19.10;99.90;;;;;;5055307;28;20508;-80
2021/08/20 00:51:37;;;;;;;9.68;2.95;;;19.10;99.90;;;;;;5055222;28;20017;-79
2021/08/20 00:54:08;;;;;;;5.32;2.40;;;18.90;99.90;;;;;;5055314;28;20021;-79
2021/08/20 00:56:34;;;;;;;8.32;2.83;;;18.90;99.90;;;;;;5036794;28;20036;-78
2021/08/20 00:59:02;;;;;;;7.35;2.55;;;19.00;99.90;;;;;;5054922;28;20025;-78
2021/08/20 01:01:28;;;;;;;8.43;2.78;;;19.00;99.90;;;;;;5036967;28;20029;-79
2021/08/20 01:03:53;;;;;;;7.90;2.60;;;19.10;99.90;;;;;;5054804;28;20017;-79
2021/08/20 01:06:19;;;;;;;8.10;2.50;;;19.20;99.90;;;;;;5054790;28;20025;-80
2021/08/20 01:08:45;;;;;;;;;;;19.10;99.90;;;;;;5055014;28;20482;-79
2021/08/20 01:11:12;;;;;;;8.57;2.63;;;19.10;99.90;;;;;;5054697;28;19909;-79
2021/08/20 01:13:40;;;;;;;8.20;2.80;;;19.10;99.90;;;;;;5054693;28;20029;-79
2021/08/20 01:16:08;;;;;;;7.97;2.65;;;19.10;99.90;;;;;;5054743;28;20103;-79
2021/08/20 01:18:37;;;;;;;7.05;2.80;;;19.10;99.90;;;;;;5036693;28;20029;-79
2021/08/20 01:21:08;;;;;;;8.15;2.72;;;19.30;99.90;;;;;;5054486;28;20010;-79
2021/08/20 01:23:38;;;;;;;6.18;2.65;;;19.30;99.90;;;;;;5054508;28;20067;-78
2021/08/20 01:26:04;;;;;;;5.57;2.40;;;19.40;99.90;;;;;;5054348;28;20075;-79
2021/08/20 01:28:31;;;;;;;7.80;2.38;;;19.50;99.90;;;;;;5054318;28;20032;-80
2021/08/20 01:31:06;;;;;;;8.52;2.60;;;19.70;99.90;;;;;;5054287;28;20020;-80
2021/08/20 01:33:32;;;;;;;8.20;2.75;;;19.70;99.90;;;;;;5054218;28;20073;-78
2021/08/20 01:35:58;;;;;;;6.38;2.30;;;19.60;99.90;;;;;;5054367;28;20055;-80
2021/08/20 01:38:25;;;;;;;6.45;2.45;;;19.60;99.90;;;;;;5054273;28;20028;-79
2021/08/20 01:40:51;;;;;;;6.20;2.60;;;19.70;99.90;;;;;;5054050;28;20107;-78
2021/08/20 01:43:17;;;;;;;6.05;2.70;;;19.50;99.90;;;;;;5054071;28;20029;-79
2021/08/20 01:45:44;;;;;;;7.72;2.50;;;19.40;99.90;;;;;;5036143;28;20032;-79
2021/08/20 01:48:11;;;;;;;6.15;2.50;;;19.30;99.90;;;;;;5053987;28;20025;-79
2021/08/20 01:50:39;;;;;;;8.30;2.45;;;19.30;99.90;;;;;;5053941;28;20025;-80
2021/08/20 01:53:10;;;;;;;5.85;2.30;;;19.30;99.90;;;;;;5053967;28;20032;-78
2021/08/20 01:55:36;;;;;;;7.97;2.80;;;19.60;99.90;;;;;;5053839;28;20487;-80
2021/08/20 01:58:03;;;;;;;7.35;3.13;;;19.70;99.90;;;;;;5053729;28;20100;-79
2021/08/20 02:00:29;;;;;;;7.38;3.03;;;19.40;99.90;;;;;;5053751;28;20512;-79
2021/08/20 02:02:55;;;;;;;6.93;2.70;;;19.30;99.90;;;;;;5053812;28;20145;-79
2021/08/20 02:05:21;;;;;;;8.27;2.80;;;19.30;99.90;;;;;;5035700;28;20040;-80
2021/08/20 02:07:47;;;;;;;8.15;2.40;;;19.50;99.90;;;;;;5053556;28;20175;-79
2021/08/20 02:10:13;;;;;;;7.50;2.70;;;19.50;99.90;;;;;;5053507;28;20512;-79
2021/08/20 02:12:39;;;;;;;7.78;2.92;;;19.60;99.90;;;;;;5035604;28;20029;-79
2021/08/20 02:15:06;;;;;;;5.72;2.50;;;19.50;99.90;;;;;;5053425;28;20035;-79
2021/08/20 02:17:32;;;;;;;9.65;2.50;;;19.30;99.90;;;;;;5053483;28;20385;-77
2021/08/20 02:19:57;;;;;;;6.78;2.20;;;19.50;99.90;;;;;;5053607;28;20021;-78
2021/08/20 02:22:23;;;;;;;;;;;19.60;99.90;;;;;;5053327;28;20100;-79
2021/08/20 02:24:52;;;;;;;8.93;2.70;;;19.60;99.90;;;;;;5053278;28;20384;-80
2021/08/20 02:27:18;;;;;;;6.60;2.50;;;19.60;99.90;;;;;;5035486;28;20021;-80
2021/08/20 02:29:44;;;;;;;6.80;2.65;;;19.60;99.90;;;;;;5053242;28;20104;-80
2021/08/20 02:32:10;;;;;;;7.90;2.78;;;19.60;99.90;;;;;;5053259;28;20453;-79
2021/08/20 02:34:36;;;;;;;6.03;2.80;;;19.60;99.90;;;;;;5059877;28;20049;-78
2021/08/20 02:37:01;;;;;;;7.88;3.08;;;19.60;99.90;;;;;;5073293;28;20115;-79
2021/08/20 02:39:27;;;;;;;7.78;2.95;;;19.50;99.90;;;;;;5071936;28;20504;-80
2021/08/20 02:41:53;;;;;;;8.80;3.60;;;19.40;99.90;;;;;;5073248;28;20028;-78
2021/08/20 02:44:19;;;;;;;8.02;2.90;;;19.10;99.90;;;;;;5073678;28;20025;-80
2021/08/20 02:46:45;;;;;;;6.47;2.80;;;19.10;99.90;;;;;;5073398;28;20023;-81
2021/08/20 02:49:10;;;;;;;10.30;4.07;;;18.90;99.90;;;;;;5073418;28;20024;-78
2021/08/20 02:51:36;;;;;;;8.82;3.42;;;18.60;99.90;;;;;;5071875;28;20074;-79
2021/08/20 02:54:02;;;;;;;10.02;3.35;;;18.60;99.90;;;;;;5073118;28;20457;-78
2021/08/20 02:56:28;;;;;;;11.85;3.95;;;18.50;99.90;;;;;;5073440;28;20021;-78
2021/08/20 02:58:54;;;;;;;8.50;3.30;;;18.40;99.90;;;;;;5071799;28;20036;-79
2021/08/20 03:01:20;;;;;;;12.48;3.90;;;18.70;99.90;;;;;;5073250;28;20381;-80
2021/08/20 03:03:47;;;;;;;;;;;18.70;99.90;;;;;;5073430;28;20024;-79
2021/08/20 03:06:12;;;;;;;7.82;3.05;;;18.70;99.90;;;;;;5073084;28;19905;-79
2021/08/20 03:08:38;;;;;;;9.18;3.80;;;18.80;99.90;;;;;;5071672;28;20048;-79
2021/08/20 03:11:04;;;;;;;11.27;3.88;;;18.90;99.90;;;;;;5073008;28;20036;-80
2021/08/20 03:13:30;;;;;;;;;;;19.00;99.90;;;;;;5073366;28;20511;-80
2021/08/20 03:15:56;;;;;;;10.50;4.00;;;18.90;99.90;;;;;;5071563;28;19956;-81
2021/08/20 03:18:22;;;;;;;8.80;3.40;;;18.80;99.90;;;;;;5072822;28;20024;-79
2021/08/20 03:20:48;;;;;;;10.10;3.58;;;18.90;99.90;;;;;;5073300;28;20025;-79
2021/08/20 03:23:15;;;;;;;9.48;3.65;;;19.10;99.90;;;;;;5073014;28;20020;-78
2021/08/20 03:25:41;;;;;;;12.43;4.70;;;19.10;99.90;;;;;;5072743;28;20484;-79
2021/08/20 03:28:08;;;;;;;16.50;5.30;;;18.80;99.90;;;;;;5072794;28;20059;-79
2021/08/20 03:30:37;;;;;;;10.02;3.80;;;18.70;99.90;;;;;;5072734;28;20021;-81
2021/08/20 03:33:03;;;;;;;8.88;3.55;;;18.80;99.90;;;;;;5071642;28;20028;-79
2021/08/20 03:35:29;;;;;;;10.20;3.80;;;18.90;99.90;;;;;;5056567;28;20482;-80
2021/08/20 03:37:58;;;;;;;12.45;4.72;;;19.00;99.90;;;;;;5056400;28;20021;-79
2021/08/20 03:40:26;;;;;;;11.15;4.60;;;18.80;99.90;;;;;;5056496;28;20497;-79
2021/08/20 03:42:53;;;;;;;11.90;4.10;;;18.60;99.90;;;;;;5056358;28;20070;-79
2021/08/20 03:45:19;;;;;;;8.98;3.75;;;18.60;99.90;;;;;;5056264;28;20029;-79
2021/08/20 03:47:45;;;;;;;12.38;4.78;;;18.70;99.90;;;;;;5056345;28;20032;-80
2021/08/20 03:50:11;;;;;;;9.38;4.03;;;18.40;99.90;;;;;;5056215;28;20029;-79
2021/08/20 03:52:36;;;;;;;12.55;5.00;;;18.60;99.90;;;;;;5056343;28;20025;-79
2021/08/20 03:55:03;;;;;;;11.75;4.65;;;18.70;99.90;;;;;;5056024;28;20029;-80
2021/08/20 03:57:29;;;;;;;10.38;4.18;;;18.40;99.90;;;;;;5056051;28;20017;-79
2021/08/20 03:59:54;;;;;;;9.85;4.32;;;18.40;99.90;;;;;;5056032;28;20035;-80
2021/08/20 04:02:20;;;;;;;9.55;4.38;;;18.30;99.90;;;;;;5056197;28;20009;-80
2021/08/20 04:04:45;;;;;;;;;;;18.50;99.90;;;;;;5056521;28;20025;-80
2021/08/20 04:07:14;;;;;;;9.15;4.00;;;18.40;99.90;;;;;;5055929;28;20284;-78
2021/08/20 04:09:40;;;;;;;9.90;3.92;;;18.50;99.90;;;;;;5056057;28;20453;-78
2021/08/20 04:12:06;;;;;;;11.52;4.07;;;18.60;99.90;;;;;;5055830;28;20033;-80
2021/08/20 04:14:32;;;;;;;8.63;3.47;;;18.70;99.90;;;;;;5055676;28;20025;-79
2021/08/20 04:16:57;;;;;;;10.93;4.05;;;18.60;99.90;;;;;;5055708;28;20024;-80
2021/08/20 04:19:23;;;;;;;;;;;18.70;99.90;;;;;;5038206;28;20066;-78
2021/08/20 04:21:49;;;;;;;14.48;5.47;;;18.60;99.90;;;;;;5055639;28;19912;-78
2021/08/20 04:24:15;;;;;;;;;;;18.40;99.90;;;;;;5056213;28;20025;-79
2021/08/20 04:26:41;;;;;;;12.02;4.45;;;18.40;99.90;;;;;;5055542;28;20284;-80
2021/08/20 04:29:07;;;;;;;12.52;4.68;;;18.50;99.90;;;;;;5055455;28;20029;-79
2021/08/20 04:31:33;;;;;;;11.68;5.00;;;18.50;99.90;;;;;;5055441;28;20393;-80
2021/08/20 04:33:59;;;;;;;11.45;4.78;;;18.50;99.90;;;;;;5055183;28;20056;-80
2021/08/20 04:36:24;;;;;;;12.05;4.63;;;18.60;99.90;;;;;;5055346;28;20035;-79
2021/08/20 04:38:50;;;;;;;10.13;4.28;;;18.50;99.90;;;;;;5055474;28;20070;-79
2021/08/20 04:41:16;;;;;;;12.43;5.07;;;18.70;99.90;;;;;;5055288;28;20036;-78
2021/08/20 04:43:42;;;;;;;13.68;5.18;;;18.60;99.90;;;;;;5054884;28;20025;-80
2021/08/20 04:46:07;;;;;;;11.55;4.30;;;18.70;99.90;;;;;;5055057;28;20032;-79
2021/08/20 04:48:33;;;;;;;11.52;5.03;;;18.50;99.90;;;;;;5055146;28;20456;-80
2021/08/20 04:50:59;;;;;;;13.65;4.75;;;18.50;99.90;;;;;;5055108;28;20109;-78
2021/08/20 04:53:30;;;;;;;11.45;4.43;;;18.60;99.90;;;;;;5055042;28;20021;-79
2021/08/20 04:55:56;;;;;;;9.95;4.22;;;18.50;99.90;;;;;;5055008;28;20021;-78
2021/08/20 04:58:22;;;;;;;13.40;4.22;;;18.40;99.90;;;;;;5054897;28;20100;-79
2021/08/20 05:00:48;;;;;;;13.07;4.43;;;18.60;99.90;;;;;;5055357;28;20052;-79
2021/08/20 05:03:14;;;;;;;10.65;4.78;;;18.60;99.90;;;;;;5055022;28;20013;-78
2021/08/20 05:05:41;;;;;;;9.25;4.10;;;18.70;99.90;;;;;;5054809;28;20025;-79
2021/08/20 05:08:08;;;;;;;9.82;4.20;;;18.50;99.90;;;;;;5054769;28;20098;-79
2021/08/20 05:10:33;;;;;;;10.98;5.03;;;18.50;99.90;;;;;;5036892;28;20087;-79
2021/08/20 05:12:59;;;;;;;11.25;4.32;;;18.60;99.90;;;;;;5054804;28;20484;-79
2021/08/20 05:15:27;;;;;;;;;;;18.40;99.90;;;;;;5054923;28;20036;-78
2021/08/20 05:17:53;;;;;;;11.13;4.40;;;18.70;99.90;;;;;;5054551;28;19905;-79
2021/08/20 05:20:20;;;;;;;9.45;3.72;;;18.90;99.90;;;;;;5054474;28;20075;-79
2021/08/20 05:22:48;;;;;;;10.85;4.45;;;18.90;99.90;;;;;;5054477;28;20021;-77
2021/08/20 05:25:15;;;;;;;12.05;4.85;;;19.00;99.90;;;;;;5054339;28;20040;-79
2021/08/20 05:27:41;;;;;;;10.52;4.60;;;18.70;99.90;;;;;;5054400;28;20126;-80
2021/08/20 05:30:09;;;;;;;9.88;4.68;;;18.60;99.90;;;;;;5036459;28;20068;-79
2021/08/20 05:32:35;;;;;;;11.23;4.32;;;18.60;99.90;;;;;;5054284;28;20028;-80
2021/08/20 05:35:02;;;;;;;11.95;4.45;;;18.60;99.90;;;;;;5053811;28;20053;-78
2021/08/20 05:37:28;;;;;;;11.52;4.43;;;18.50;99.90;;;;;;5054216;28;20053;-79
2021/08/20 05:39:53;;;;;;;12.27;4.55;;;18.50;99.90;;;;;;5054145;28;20409;-78
2021/08/20 05:42:19;;;;;;;10.65;4.45;;;18.70;99.90;;;;;;5054247;28;20031;-79
2021/08/20 05:44:45;;;;;;;8.25;4.07;;;18.70;99.90;;;;;;5054048;28;20096;-79
2021/08/20 05:47:11;;;;;;;10.27;5.07;;;18.70;99.90;;;;;;5054631;28;20064;-78
2021/08/20 05:49:36;;;;;;;12.73;4.97;;;18.60;99.90;;;;;;5054026;28;20120;-78
2021/08/20 05:52:02;;;;;;;;;;;18.50;99.90;;;;;;5054310;28;20025;-78
2021/08/20 05:54:28;;;;;;;10.65;4.70;;;18.40;99.90;;;;;;5053844;28;20274;-79
2021/08/20 05:56:53;;;;;;;16.83;4.38;;;18.60;99.90;;;;;;5053021;28;20033;-80
2021/08/20 05:59:19;;;;;;;11.70;4.47;;;18.90;99.90;;;;;;5053968;28;20021;-78
2021/08/20 06:01:45;;;;;;;12.85;4.57;;;19.00;99.90;;;;;;5053869;28;20032;-80
2021/08/20 06:04:10;;;;;;;10.57;4.43;;;18.90;99.90;;;;;;5053679;28;20024;-79
2021/08/20 06:06:38;;;;;;;10.18;4.65;;;19.00;99.90;;;;;;5035788;28;20021;-79
2021/08/20 06:09:04;;;;;;;12.43;4.40;;;19.20;99.90;;;;;;5053899;28;20025;-78
2021/08/20 06:11:30;;;;;;;12.05;4.82;;;19.10;99.90;;;;;;5053561;28;20409;-79
2021/08/20 06:13:56;;;;;;;10.40;4.47;;;19.10;99.90;;;;;;5035635;28;20090;-79
2021/08/20 06:16:21;;;;;;;10.38;4.38;;;19.40;99.90;;;;;;5053388;28;20029;-79
2021/08/20 06:18:47;;;;;;;10.80;4.70;;;19.30;99.90;;;;;;5035554;28;20021;-78
2021/08/20 06:21:13;;;;;;;10.32;4.47;;;19.20;99.90;;;;;;5035538;28;20017;-79
2021/08/20 06:23:39;;;;;;;10.35;4.13;;;19.20;99.90;;;;;;5053563;28;20025;-79
2021/08/20 06:26:05;;;;;;;11.77;4.45;;;19.50;99.90;;;;;;5053344;28;20021;-79
2021/08/20 06:28:31;;;;;;;18.10;5.75;;;19.60;99.90;;;;;;5053377;28;20153;-79
2021/08/20 06:31:02;;;;;;;10.15;4.32;;;19.70;99.90;;;;;;5035246;28;20052;-79
2021/08/20 06:33:29;;;;;;;11.43;4.47;;;19.50;99.90;;;;;;5041244;28;20063;-78
2021/08/20 06:35:57;;;;;;;15.85;5.70;;;19.50;99.90;;;;;;5072079;28;20087;-79
2021/08/20 06:38:23;;;;;;;9.70;4.20;;;19.60;99.90;;;;;;5055486;28;20031;-80
2021/08/20 06:40:49;;;;;;;12.50;4.63;;;19.70;99.90;;;;;;5073285;28;20017;-79
2021/08/20 06:43:15;;;;;;;9.23;4.20;;;19.70;99.90;;;;;;5073198;28;20485;-79
2021/08/20 06:45:41;;;;;;;11.75;4.28;;;19.60;99.90;;;;;;5073241;28;20029;-80
2021/08/20 06:48:06;;;;;;;9.38;3.97;;;19.70;99.90;;;;;;5071918;28;20032;-80
2021/08/20 06:50:32;;;;;;;10.25;4.03;;;19.90;99.90;;;;;;5073136;28;20028;-79
2021/08/20 06:52:58;;;;;;;8.18;4.05;;;20.20;99.90;;;;;;5073429;28;20024;-79
2021/08/20 06:55:24;;;;;;;10.68;4.18;;;20.30;99.90;;;;;;5073075;28;20021;-80
2021/08/20 06:57:49;;;;;;;15.27;4.40;;;20.50;99.90;;;;;;5073077;28;20485;-80
2021/08/20 07:00:16;;;;;;;8.70;4.10;;;20.20;99.90;;;;;;5073725;28;20020;-80
2021/08/20 07:02:46;;;;;;;11.52;4.47;;;20.20;99.90;;;;;;5073040;28;20032;-79
2021/08/20 07:05:14;;;;;;;10.00;4.57;;;20.20;99.90;;;;;;5073000;28;20089;-78
2021/08/20 07:07:40;;;;;;;10.25;4.18;;;20.10;99.90;;;;;;5074538;28;20024;-79
2021/08/20 07:10:09;;;;;;;10.25;4.18;;;20.20;99.90;;;;;;5077332;28;20020;-78
2021/08/20 07:12:34;;;;;;;12.30;4.68;;;20.20;99.90;;;;;;5077132;28;20020;-79
2021/08/20 07:15:01;;;;;;;10.45;4.40;;;20.30;99.90;;;;;;5077131;28;20028;-78
2021/08/20 07:17:26;;;;;;;12.23;4.05;;;20.40;99.90;;;;;;5077049;28;20082;-78
2021/08/20 07:19:52;;;;;;;8.48;3.70;;;20.60;99.90;;;;;;5076876;28;20016;-80
2021/08/20 07:22:18;;;;;;;9.50;4.10;;;20.70;99.90;;;;;;5077344;28;20030;-78
2021/08/20 07:24:44;;;;;;;9.50;4.18;;;20.60;99.90;;;;;;5076706;28;20466;-79
2021/08/20 07:27:09;;;;;;;11.38;4.50;;;20.60;99.90;;;;;;5076678;28;20028;-78
2021/08/20 07:29:35;;;;;;;13.73;4.88;;;20.40;99.90;;;;;;5076648;28;20081;-78
2021/08/20 07:32:01;;;;;;;11.27;3.90;;;20.50;99.90;;;;;;5076561;28;20036;-79
2021/08/20 07:34:26;;;;;;;12.07;4.00;;;20.60;99.90;;;;;;5063492;28;20147;-79
2021/08/20 07:36:52;;;;;;;11.00;3.85;;;20.80;99.90;;;;;;5056459;28;20104;-79
2021/08/20 07:39:19;;;;;;;10.90;3.67;;;21.00;99.90;;;;;;5056968;28;20020;-79
2021/08/20 07:41:45;;;;;;;14.00;4.10;;;21.10;99.90;;;;;;5056406;28;20021;-79
2021/08/20 07:44:14;;;;;;;9.07;3.50;;;21.10;99.90;;;;;;5056952;28;20032;-79
2021/08/20 07:46:43;;;;;;;10.15;3.60;;;20.90;99.90;;;;;;5038350;28;20029;-79
2021/08/20 07:49:08;;;;;;;8.93;3.08;;;21.20;99.90;;;;;;5038336;28;20103;-78
2021/08/20 07:51:34;;;;;;;9.55;3.03;;;21.50;99.90;;;;;;5056375;28;20110;-79
2021/08/20 07:54:00;;;;;;;9.70;3.20;;;21.70;99.90;;;;;;5056192;28;20029;-79
2021/08/20 07:56:26;;;;;;;7.90;3.67;;;21.70;99.90;;;;;;5056007;28;20029;-79
2021/08/20 07:58:52;;;;;;;10.50;3.20;;;21.60;99.90;;;;;;5056414;28;20021;-79
2021/08/20 08:01:18;;;;;;;20.05;12.50;;;21.70;99.90;;;;;;5056084;28;20454;-79
2021/08/20 08:03:44;;;;;;;10.10;3.50;;;21.80;99.90;;;;;;5055907;28;20123;-80
2021/08/20 08:06:13;;;;;;;10.88;4.18;;;21.70;99.90;;;;;;5055967;28;20043;-78
2021/08/20 08:08:41;;;;;;;7.47;3.28;;;21.40;99.90;;;;;;5056090;28;20032;-78
2021/08/20 08:11:08;;;;;;;10.45;3.80;;;21.30;99.90;;;;;;5037894;28;20471;-79
2021/08/20 08:13:34;;;;;;;9.38;3.28;;;21.70;99.90;;;;;;5056010;28;20032;-79
2021/08/20 08:16:00;;;;;;;8.38;2.95;;;21.80;99.90;;;;;;5038114;28;20029;-79
2021/08/20 08:18:25;;;;;;;9.90;3.40;;;21.80;99.90;;;;;;5055395;28;20028;-79
2021/08/20 08:20:51;;;;;;;7.03;2.80;;;22.00;99.90;;;;;;5055764;28;20021;-80
2021/08/20 08:23:17;;;;;;;9.80;3.22;;;22.00;99.90;;;;;;5055632;28;20021;-79
2021/08/20 08:25:43;;;;;;;7.20;2.50;;;22.00;99.90;;;;;;5055525;28;20370;-79
2021/08/20 08:28:09;;;;;;;8.02;2.97;;;22.00;99.90;;;;;;5055478;28;20027;-79
2021/08/20 08:30:37;;;;;;;8.85;2.53;;;22.30;99.90;;;;;;5055608;28;20036;-79
2021/08/20 08:33:04;;;;;;;7.95;2.70;;;22.30;99.90;;;;;;5055204;28;20016;-79
2021/08/20 08:35:30;;;;;;;8.40;2.55;;;22.60;99.90;;;;;;5037230;28;20088;-78
2021/08/20 08:38:07;;;;;;;7.88;2.70;;;22.60;99.90;;;;;;5055644;28;20017;-79
2021/08/20 08:40:34;;;;;;;6.63;2.30;;;22.70;99.90;;;;;;5055853;28;20043;-78
2021/08/20 08:43:02;;;;;;;7.43;2.50;;;22.60;99.90;;;;;;5037494;28;20028;-76
2021/08/20 08:45:28;;;;;;;9.57;3.17;;;22.80;99.90;;;;;;5055249;28;20036;-78
2021/08/20 08:47:55;;;;;;;7.50;2.60;;;22.20;99.90;;;;;;5055162;28;20021;-76
2021/08/20 08:50:22;;;;;;;8.43;2.83;;;22.10;99.90;;;;;;5055174;28;20064;-76
2021/08/20 08:52:48;;;;;;;7.22;2.20;;;22.40;99.90;;;;;;5055049;28;20017;-77
2021/08/20 08:55:14;;;;;;;7.97;2.28;;;22.30;99.90;;;;;;5054904;28;20051;-77
2021/08/20 08:57:39;;;;;;;6.25;2.50;;;22.20;99.90;;;;;;5054767;28;20021;-75
2021/08/20 09:00:06;;;;;;;8.77;2.78;;;22.40;99.90;;;;;;5055333;28;20036;-76
2021/08/20 09:04:09;;;;;;;8.27;2.30;;;22.50;99.90;;;;;;5152678;27;20831;-74
2021/08/20 09:06:42;;;;;;;7.00;2.30;;;22.60;99.90;;;;;;5131672;28;20111;-78
2021/08/20 09:09:11;;;;;;;5.85;2.22;;;22.70;99.90;;;;;;5112931;28;20433;-77
2021/08/20 09:11:37;;;;;;;6.82;2.15;;;22.80;99.90;;;;;;5113115;28;20437;-77
2021/08/20 09:14:06;;;;;;;6.35;2.17;;;22.90;99.90;;;;;;5131714;28;20024;-77
2021/08/20 09:16:40;;;;;;;6.55;2.17;;;23.10;99.90;;;;;;5113179;28;20027;-77
2021/08/20 09:19:12;;;;;;;6.00;2.60;;;23.20;99.90;;;;;;5113294;28;20019;-78
2021/08/20 09:21:40;;;;;;;6.05;2.22;;;22.70;99.90;;;;;;5131262;28;20023;-77
2021/08/20 09:24:29;;;;;;;8.05;2.67;;;22.80;99.90;;;;;;5126942;28;20073;-77
2021/08/20 09:27:18;;;;;;;7.65;2.20;;;22.90;99.90;;;;;;5092156;28;20395;-78
2021/08/20 09:30:11;;;;;;;7.10;2.38;;;22.90;99.90;;;;;;5110739;28;20023;-77
2021/08/20 09:32:45;;;;;;;10.63;5.00;;;23.10;99.90;;;;;;5093331;28;20060;-78
2021/08/20 09:35:11;;;;;;;8.98;3.60;;;23.20;99.90;;;;;;5110592;28;20510;-77
2021/08/20 09:37:38;;;;;;;13.68;8.85;;;23.00;99.90;;;;;;5110786;28;20028;-77
2021/08/20 09:40:08;;;;;;;15.20;8.55;;;22.90;99.90;;;;;;5092529;28;20035;-77
2021/08/20 09:42:34;;;;;;;10.07;4.70;;;22.60;99.90;;;;;;5110738;28;20077;-77
2021/08/20 09:45:23;;;;;;;7.47;3.08;;;22.80;99.90;;;;;;5110421;28;20391;-77
2021/08/20 09:47:50;;;;;;;8.10;2.53;;;23.00;99.90;;;;;;5110392;28;20020;-78
2021/08/20 09:50:19;;;;;;;4.95;1.92;;;23.30;99.90;;;;;;5110359;28;20095;-77
2021/08/20 09:52:46;;;;;;;5.55;1.75;;;23.20;99.90;;;;;;5110618;28;20069;-78
2021/08/20 09:55:12;;;;;;;6.93;2.40;;;23.50;99.90;;;;;;5110781;28;20020;-78
2021/08/20 09:57:39;;;;;;;7.78;2.17;;;23.70;99.90;;;;;;5110186;28;20511;-77
2021/08/20 10:00:10;;;;;;;7.07;2.50;;;24.10;99.90;;;;;;5110109;28;20499;-77
2021/08/20 10:02:40;;;;;;;10.57;2.17;;;24.10;99.90;;;;;;5109978;28;20085;-77
2021/08/20 10:05:06;;;;;;;5.82;2.00;;;23.80;99.90;;;;;;5110047;28;20061;-78
2021/08/20 10:07:40;;;;;;;5.63;1.90;;;23.80;99.90;;;;;;5110071;28;20032;-78
2021/08/20 10:10:08;;;;;;;6.72;1.95;;;23.90;99.90;;;;;;5110004;28;20495;-78
2021/08/20 10:12:38;;;;;;;5.07;1.95;;;23.90;99.90;;;;;;5110175;28;20404;-78
2021/08/20 10:15:06;;;;;;;5.22;1.90;;;23.90;99.90;;;;;;5098222;28;20028;-78
2021/08/20 10:17:33;;;;;;;5.85;1.98;;;23.70;99.90;;;;;;5096225;28;20111;-78
2021/08/20 10:19:59;;;;;;;4.57;1.73;;;23.60;99.90;;;;;;5096190;28;20028;-78
2021/08/20 10:22:25;;;;;;;7.35;2.00;;;23.70;99.90;;;;;;5096099;28;20024;-78
2021/08/20 10:24:51;;;;;;;5.97;2.08;;;23.70;99.90;;;;;;5096071;28;20487;-78
2021/08/20 10:27:19;;;;;;;7.55;1.92;;;23.80;99.90;;;;;;5078136;28;20070;-78
2021/08/20 10:29:47;;;;;;;5.60;1.70;;;23.80;99.90;;;;;;5095991;28;20535;-78
2021/08/20 10:32:17;;;;;;;6.32;2.03;;;23.90;99.90;;;;;;5095959;28;20020;-78
2021/08/20 10:34:43;;;;;;;8.30;2.00;;;23.90;99.90;;;;;;5095943;28;20515;-78
2021/08/20 10:37:28;;;;;;;4.30;1.90;;;23.80;99.90;;;;;;5077711;28;20040;-78
2021/08/20 10:39:56;;;;;;;5.75;1.88;;;23.90;99.90;;;;;;5096027;28;20384;-78
2021/08/20 10:42:41;;;;;;;6.20;2.00;;;23.90;99.90;;;;;;5095657;28;20058;-78
2021/08/20 10:45:12;;;;;;;6.18;1.90;;;24.10;99.90;;;;;;5096247;28;20012;-78
2021/08/20 10:47:40;;;;;;;6.82;1.80;;;24.30;99.90;;;;;;5095648;28;20048;-79
2021/08/20 10:50:13;;;;;;;6.50;1.80;;;24.30;99.90;;;;;;5096048;28;20046;-79
2021/08/20 10:52:47;;;;;;;5.88;1.90;;;24.50;99.90;;;;;;5095863;28;20027;-79
2021/08/20 10:55:24;;;;;;;3.88;1.70;;;24.70;99.90;;;;;;5096048;28;20024;-78
2021/08/20 10:57:50;;;;;;;5.57;1.80;;;25.10;99.90;;;;;;5095965;28;20028;-79
2021/08/20 11:00:18;;;;;;;4.47;1.80;;;25.00;99.90;;;;;;5095645;28;20104;-78
2021/08/20 11:02:49;;;;;;;4.30;1.85;;;24.60;99.90;;;;;;5076966;28;20087;-79
2021/08/20 11:05:15;;;;;;;5.03;1.80;;;25.10;99.90;;;;;;5095368;28;20496;-79
2021/08/20 11:07:44;;;;;;;5.47;1.70;;;25.30;99.90;;;;;;5095270;28;20046;-80
2021/08/20 11:10:10;;;;;;;5.40;1.80;;;26.00;99.90;;;;;;5077096;28;20013;-81
2021/08/20 11:12:46;;;;;;;6.88;2.10;;;26.10;99.90;;;;;;5077063;28;20032;-80
2021/08/20 11:15:18;;;;;;;4.53;1.88;;;26.30;99.90;;;;;;5076702;28;20467;-80
2021/08/20 11:17:51;;;;;;;4.50;1.80;;;26.70;99.90;;;;;;5095053;28;20481;-80
2021/08/20 11:20:24;;;;;;;7.43;1.95;;;27.10;99.80;;;;;;5095263;28;20077;-79
2021/08/20 11:23:07;;;;;;;4.10;1.75;;;26.90;99.60;;;;;;5076476;28;20135;-79
2021/08/20 11:25:49;;;;;;;4.60;1.80;;;26.70;99.90;;;;;;5093927;28;20016;-78
2021/08/20 11:28:34;;;;;;;4.00;1.80;;;25.90;99.90;;;;;;5095339;28;20051;-80
2021/08/20 11:31:03;;;;;;;4.20;1.60;;;25.60;99.90;;;;;;5076347;28;20020;-79
2021/08/20 11:33:31;;;;;;;6.22;1.90;;;25.70;99.90;;;;;;5094760;28;20103;-79
2021/08/20 11:36:00;;;;;;;6.40;1.90;;;25.60;99.90;;;;;;5094727;28;20020;-78
2021/08/20 11:38:33;;;;;;;6.43;1.80;;;25.50;99.90;;;;;;5094642;28;20042;-78
2021/08/20 11:41:04;;;;;;;4.00;1.80;;;25.30;99.90;;;;;;5094835;28;20077;-78
2021/08/20 11:43:33;;;;;;;5.07;1.80;;;25.00;99.90;;;;;;5094841;28;20028;-79
2021/08/20 11:46:08;;;;;;;4.68;1.80;;;24.90;99.90;;;;;;5094544;28;20026;-78
2021/08/20 11:48:46;;;;;;;4.20;1.63;;;24.70;99.90;;;;;;5094779;28;20031;-78
2021/08/20 11:51:14;;;;;;;4.10;1.63;;;24.90;99.90;;;;;;5094566;28;20024;-78
2021/08/20 11:53:46;;;;;;;4.53;1.60;;;24.70;99.90;;;;;;5094422;28;20028;-77
2021/08/20 11:56:14;;;;;;;5.53;1.65;;;24.60;99.90;;;;;;5094328;28;20389;-78
2021/08/20 11:58:43;;;;;;;2.80;1.60;;;24.40;99.90;;;;;;5094333;28;20028;-78
2021/08/20 12:01:37;;;;;;;5.03;1.73;;;24.40;99.90;;;;;;5094583;28;20024;-78
2021/08/20 12:04:04;;;;;;;4.88;1.83;;;24.20;99.90;;;;;;5073233;28;20055;-78
2021/08/20 12:06:31;;;;;;;4.82;1.75;;;24.00;99.90;;;;;;5094182;28;20041;-78
2021/08/20 12:09:15;;;;;;;3.05;1.75;;;24.00;99.90;;;;;;5094086;28;20047;-78
2021/08/20 12:11:42;;;;;;;3.40;1.50;;;23.90;99.90;;;;;;5094413;28;20060;-78
2021/08/20 12:14:16;;;;;;;3.92;1.70;;;24.10;99.90;;;;;;5094324;28;20030;-78
2021/08/20 12:16:44;;;;;;;4.10;1.65;;;24.10;99.90;;;;;;5094252;28;20097;-78
2021/08/20 12:19:14;;;;;;;3.83;1.60;;;23.90;99.90;;;;;;5075687;28;20484;-78
2021/08/20 12:21:44;;;;;;;4.35;2.00;;;24.00;99.90;;;;;;5075587;28;20028;-78
2021/08/20 12:24:11;;;;;;;3.08;1.25;;;23.50;99.90;;;;;;5075549;28;20040;-77
2021/08/20 12:26:37;;;;;;;3.00;1.55;;;23.70;99.90;;;;;;5093848;28;20055;-78
2021/08/20 12:29:17;;;;;;;4.72;1.40;;;23.70;99.90;;;;;;5094310;28;20020;-78
2021/08/20 12:31:58;;;;;;;4.35;1.75;;;23.90;99.90;;;;;;5093700;28;20020;-78
2021/08/20 12:34:32;;;;;;;3.20;1.50;;;24.10;99.90;;;;;;5093662;28;20074;-78
2021/08/20 12:37:00;;;;;;;5.22;1.60;;;23.80;99.90;;;;;;5093680;28;20077;-79
2021/08/20 12:39:40;;;;;;;4.50;1.60;;;23.60;99.90;;;;;;5075488;28;20020;-78
2021/08/20 12:42:50;;;;;;;5.72;1.70;;;24.10;99.90;;;;;;5093826;28;20473;-78
2021/08/20 12:45:19;;;;;;;3.90;1.83;;;24.20;99.90;;;;;;5082232;28;20404;-78
2021/08/20 12:48:05;;;;;;;4.32;1.50;;;24.50;99.90;;;;;;5093619;28;20024;-78
2021/08/20 12:50:35;;;;;;;3.97;1.60;;;24.40;99.90;;;;;;5093114;28;20416;-78